• Join FlightAware (Why Join?)
  • Login
  • US Flag 
11:47AM EDT


 

Airport Tracker/Info


-or-


 

Live Flight TrackerFlight Track Log ✈ UPS1125 ✈ 26-Dec-2013 ✈ KJFK - KRFD

Flight Track Log - Related Links

Times and Time Zones

All times are in EST time to prevent confusion due to time zone crossing. See the UPS1125 flight status page for this flight to view local times or setup timezone preferences in your user account.

Time Position Orientation Groundspeed Altitude Reporting Facility
EST Latitude Longitude Course Direction KTS MPH feet Rate Location/Type
10:36PM 40.6500 -73.8500 242° Southwest 173 199 3,000  Level New York TRACON
10:37PM 40.5833 -73.8833 201° Southwest 260 299 6,300 3,300 Climbing New York TRACON
10:38PM 40.5667 -73.8000 105° East 308 354 9,700 2,760 Climbing New York TRACON
10:38PM 40.5833 -73.6833 79° East 358 412 11,600 1,860 Climbing New York TRACON
10:39PM 40.6667 -73.6000 37° Northeast 407 468 13,300 1,740 Climbing New York TRACON
10:41PM 40.7637 -74.5157 242° Southwest  Level Estimated
10:41PM 40.8914 -73.6450 351° North 436 502 16,900  Level New York Center
10:42PM 40.9836 -73.7011 335° Northwest 414 476 17,900 1,440 Climbing New York Center
10:43PM 41.0881 -73.7692 334° Northwest 409 471 19,800 1,920 Climbing New York Center
10:44PM 41.1328 -73.8922 296° West 371 427 21,800 1,500 Climbing New York Center
10:45PM 41.1333 -74.0328 270° West 357 411 22,800 1,380 Climbing New York Center
10:46PM 41.1106 -74.1750 258° West 368 423 24,600 2,100 Climbing New York Center
10:47PM 41.0811 -74.3247 255° West 375 432 27,100 2,820 Climbing New York Center
10:48PM 41.0581 -74.4611 257° West 380 437 30,300 2,400 Climbing New York Center
10:49PM 41.0372 -74.5947 258° West 385 443 32,000 840 Climbing New York Center
10:50PM 41.0139 -74.7336 257° West 385 443 32,000  Level New York Center
10:51PM 40.9883 -74.8725 256° West 385 443 32,000  Level New York Center
10:52PM 40.9606 -75.0081 255° West 390 449 32,000  Level New York Center
10:53PM 40.9222 -75.1431 249° West 390 449 32,000  Level New York Center
10:54PM 40.8942 -75.2811 255° West 397 457 32,000  Level New York Center
10:55PM 40.9014 -75.4217 274° West 374 430 32,000  Level New York Center
10:56PM 40.9164 -75.5628 278° West 386 444 32,000  Level New York Center
10:57PM 40.9314 -75.7039 278° West 396 456 32,000  Level New York Center
10:58PM 40.9464 -75.8478 278° West 396 456 32,000  Level New York Center
10:59PM 40.9608 -75.9919 278° West 396 456 32,000  Level New York Center
11:00PM 40.9733 -76.1303 277° West 391 450 32,000  Level New York Center
11:01PM 40.9875 -76.2744 277° West 391 450 32,000  Level New York Center
11:02PM 41.0019 -76.4131 278° West 391 450 32,000  Level New York Center
11:03PM 41.0158 -76.5572 277° West 391 450 32,000  Level New York Center
11:04PM 41.0297 -76.6958 278° West 391 450 32,000  Level New York Center
11:05PM 41.0433 -76.8403 277° West 391 450 32,000  Level New York Center
11:06PM 41.0519 -76.9539 276° West 391 450 32,000  Level New York Center
11:07PM 41.0669 -77.1067 277° West 391 450 32,000  Level New York Center
11:08PM 41.0800 -77.2481 277° West 391 450 32,000  Level New York Center
11:09PM 41.0953 -77.3900 278° West 391 450 32,000  Level New York Center
11:11PM 41.1144 -77.6203 276° West 392 451 32,000  Level Cleveland Center
11:12PM 41.1272 -77.7631 277° West 393 452 32,000  Level Cleveland Center
11:13PM 41.1400 -77.9047 277° West 390 449 32,000  Level Cleveland Center
11:14PM 41.1522 -78.0489 276° West 393 452 32,000  Level Cleveland Center
11:15PM 41.1636 -78.1919 276° West 394 453 32,000  Level Cleveland Center
11:16PM 41.1747 -78.3375 276° West 393 452 32,000  Level Cleveland Center
11:17PM 41.1858 -78.4800 276° West 392 451 32,000  Level Cleveland Center
11:18PM 41.1975 -78.6228 276° West 390 449 32,000  Level Cleveland Center
11:19PM 41.2092 -78.7672 276° West 395 455 32,000  Level Cleveland Center
11:20PM 41.2208 -78.9111 276° West 395 455 32,000  Level Cleveland Center
11:21PM 41.2319 -79.0683 275° West 390 449 32,000  Level Cleveland Center
11:22PM 41.2428 -79.2097 276° West 388 447 32,000  Level Cleveland Center
11:23PM 41.2536 -79.3628 275° West 387 445 32,000  Level Cleveland Center
11:24PM 41.2633 -79.4944 276° West 359 413 32,000  Level Cleveland Center
11:25PM 41.2725 -79.6192 276° West 343 395 32,000  Level Cleveland Center
11:26PM 41.2811 -79.7606 275° West 346 398 32,000  Level Cleveland Center
11:27PM 41.2908 -79.8914 276° West 355 409 32,000  Level Cleveland Center
11:28PM 41.2983 -80.0125 275° West 369 425 32,000  Level Cleveland Center
11:29PM 41.3067 -80.1494 275° West 374 430 32,000  Level Cleveland Center
11:30PM 41.3158 -80.2892 275° West 382 440 32,000  Level Cleveland Center
11:31PM 41.3253 -80.4472 275° West 379 436 32,000  Level Cleveland Center
11:32PM 41.3344 -80.5875 275° West 377 434 32,000  Level Cleveland Center
11:33PM 41.3431 -80.7272 275° West 375 432 32,000  Level Cleveland Center
11:34PM 41.3511 -80.8694 274° West 381 438 32,000  Level Cleveland Center
11:35PM 41.3597 -81.0100 275° West 377 434 32,000  Level Cleveland Center
11:36PM 41.3675 -81.1503 274° West 377 434 32,000  Level Cleveland Center
11:37PM 41.3750 -81.2886 274° West 374 430 32,000  Level Cleveland Center
11:38PM 41.3819 -81.4269 274° West 379 436 32,000  Level Cleveland Center
11:39PM 41.3892 -81.5661 274° West 378 435 32,000  Level Cleveland Center
11:40PM 41.3964 -81.7039 274° West 373 429 32,000  Level Cleveland Center
11:41PM 41.4036 -81.8406 274° West 374 430 32,000  Level Cleveland Center
11:42PM 41.4117 -81.9803 274° West 377 434 32,000  Level Cleveland Center
11:43PM 41.4194 -82.1433 274° West 376 433 32,000  Level Cleveland Center
11:44PM 41.4264 -82.2828 274° West 375 432 32,000  Level Cleveland Center
11:46PM 41.4325 -82.4222 273° West 375 432 32,000  Level Cleveland Center
11:47PM 41.4386 -82.5611 273° West 373 429 32,000  Level Cleveland Center
11:48PM 41.4447 -82.7003 273° West 373 429 32,000  Level Cleveland Center
11:49PM 41.4508 -82.8397 273° West 374 430 32,000  Level Cleveland Center
11:50PM 41.4572 -82.9783 274° West 373 429 32,000  Level Cleveland Center
11:51PM 41.4619 -83.1178 273° West 374 430 32,000  Level Cleveland Center
11:52PM 41.4681 -83.2581 273° West 376 433 32,000  Level Cleveland Center
11:53PM 41.4733 -83.3992 273° West 381 438 32,000  Level Cleveland Center
11:54PM 41.4786 -83.5397 273° West 380 437 32,000  Level Cleveland Center
11:55PM 41.4828 -83.6836 272° West 386 444 32,000  Level Cleveland Center
11:56PM 41.4875 -83.8283 273° West 390 449 32,000  Level Cleveland Center
11:57PM 41.4925 -83.9733 273° West 390 449 32,000  Level Cleveland Center
11:58PM 41.4967 -84.1192 272° West 393 452 32,000  Level Cleveland Center
11:58PM 41.4997 -84.2072 273° West 394 453 32,000  Level Chicago Center
11:59PM 41.5036 -84.3531 272° West 394 453 32,000  Level Chicago Center
12:00AM 41.5075 -84.4994 272° West 396 456 32,000  Level Chicago Center
12:01AM 41.5106 -84.6472 272° West 399 459 32,000  Level Chicago Center
12:02AM 41.5147 -84.7944 272° West 397 457 32,000  Level Chicago Center
12:03AM 41.5183 -84.9425 272° West 399 459 32,000  Level Chicago Center
12:04AM 41.5217 -85.0897 272° West 399 459 32,000  Level Chicago Center
12:05AM 41.5244 -85.2392 271° West 400 460 32,000  Level Chicago Center
12:06AM 41.5278 -85.3917 272° West 402 463 32,000  Level Chicago Center
12:07AM 41.5314 -85.5436 272° West 400 460 32,000  Level Chicago Center
12:08AM 41.5333 -85.6956 271° West 403 464 32,000  Level Chicago Center
12:09AM 41.5358 -85.8456 271° West 404 465 32,000  Level Chicago Center
12:10AM 41.5383 -85.9964 271° West 407 468 32,000  Level Chicago Center
12:11AM 41.5408 -86.1469 271° West 406 467 32,000  Level Chicago Center
12:12AM 41.5556 -86.2992 277° West 414 476 32,000  Level Chicago Center
12:13AM 41.5950 -86.4450 290° West 418 481 32,000  Level Chicago Center
12:14AM 41.6364 -86.5903 291° West 419 482 32,000  Level Chicago Center
12:15AM 41.6775 -86.7311 291° West 420 483 32,000  Level Chicago Center
12:16AM 41.7169 -86.8767 290° West 420 483 32,000  Level Chicago Center
12:17AM 41.7656 -87.0542 290° West 424 488 32,000  Level Chicago Center
12:18AM 41.8056 -87.2022 290° West 426 490 32,000 -120 Level Chicago Center
12:19AM 41.8469 -87.3528 290° West 431 496 31,800 -1,080 Descending Chicago Center
12:20AM 41.8861 -87.4983 290° West 423 487 29,900 -2,340 Descending Chicago Center
12:21AM 41.9244 -87.6408 290° West 413 475 27,200 -3,180 Descending Chicago Center
12:22AM 41.9633 -87.7858 290° West 417 480 23,600 -3,360 Descending Chicago Center
12:23AM 42.0006 -87.9247 290° West 404 465 20,500 -1,860 Descending Chicago Center
12:24AM 42.0350 -88.0561 289° West 382 440 19,900 -1,740 Descending Chicago Center
12:25AM 42.0678 -88.1844 289° West 370 426 17,000 -2,880 Descending Chicago Center
12:27AM 42.0992 -88.3081 289° West 357 411 14,100 -3,180 Descending Chicago Center
12:28AM 42.1294 -88.4225 290° West 333 383 10,600 -2,040 Descending Chicago Center
12:29AM 42.1522 -88.5250 287° West 296 341 10,100 -300 Descending Chicago Center
12:30AM 42.1483 -88.6169 267° West 255 293 10,000 -660 Descending Chicago Center
12:31AM 42.1408 -88.7267 265° West 248 285 8,800 -1,680 Descending Chicago Center
12:32AM 42.1347 -88.8167 265° West 244 281 6,700 -2,040 Descending Chicago Center
12:33AM 42.1183 -88.8964 255° West 244 281 4,800 -1,800 Descending Chicago Center
12:34AM 42.1006 -88.9794 254° West 237 273 3,100 -1,020 Descending Chicago Center
12:35AM 42.0875 -89.0539 257° West 220 253 2,800 -360 Descending Chicago Center
12:36AM 42.1156 -89.1019 308° West 192 221 2,400 -420 Descending Chicago Center